Aviation Digital Data Service (ADDS)

Output produced by TAFs form (0013 UTC 26 April 2017)
found at http://aviationweather.gov/adds/tafs/
 
KSAF 252324Z 2600/2624 32015G25KT P6SM VCTS OVC045CB 
     TEMPO 2600/2603 3SM -RA BR OVC025 
     FM260300 31011KT P6SM SCT040 BKN100 
     FM260900 34010KT P6SM FEW030 
     FM261900 28020G30KT P6SM SCT040